Time;durP1;ratioP1;P1;durP2;ratioP2;P2;SDS_P1;SDS_P2;PMS_P1;PMS_P2;Temp;Humidity;BMP_temperature;BMP_pressure;BME280_temperature;BME280_humidity;BME280_pressure;Samples;Min_cycle;Max_cycle;Signal;HPM_P1;HPM_P2
2021/12/21 00:02:12;;;;;;;20.17;12.70;;;;;;;-1.99;100.00;101126.72;5022063;28;20196;-55
2021/12/21 00:04:37;;;;;;;20.77;13.03;;;;;;;-1.98;100.00;101117.47;5021060;28;20195;-55
2021/12/21 00:07:04;;;;;;;20.97;13.10;;;;;;;-2.01;100.00;101128.28;5017780;28;20220;-55
2021/12/21 00:09:30;;;;;;;17.33;12.10;;;;;;;-2.08;100.00;101122.00;5015531;28;20242;-55
2021/12/21 00:11:57;;;;;;;18.83;12.80;;;;;;;-2.05;100.00;101118.78;5038802;28;20207;-56
2021/12/21 00:14:38;;;;;;;18.67;12.23;;;;;;;-2.07;100.00;101122.88;5022980;28;20231;-55
2021/12/21 00:17:52;;;;;;;18.90;12.20;;;;;;;-2.11;100.00;101128.56;5020751;28;20302;-54
2021/12/21 00:20:25;;;;;;;16.43;12.37;;;;;;;-2.13;100.00;101127.59;5017574;28;20227;-55
2021/12/21 00:25:08;;;;;;;16.93;11.50;;;;;;;-2.22;100.00;101120.34;5021269;28;20199;-55
2021/12/21 00:27:33;;;;;;;22.87;12.40;;;;;;;-2.22;100.00;101121.25;5022777;28;20230;-55
2021/12/21 00:29:58;;;;;;;18.80;11.57;;;;;;;-2.27;100.00;101116.72;5020350;28;20187;-55
2021/12/21 00:32:24;;;;;;;18.60;11.60;;;;;;;-2.26;100.00;101120.97;5020048;28;20298;-54
2021/12/21 00:34:49;;;;;;;17.13;11.50;;;;;;;-2.23;100.00;101114.44;5024061;28;20195;-54
2021/12/21 00:37:16;;;;;;;18.47;11.53;;;;;;;-2.26;100.00;101115.88;5022846;28;20207;-59
2021/12/21 00:39:42;;;;;;;18.17;12.67;;;;;;;-2.28;100.00;101112.41;5032127;28;20194;-55
2021/12/21 00:42:07;;;;;;;21.03;12.00;;;;;;;-2.32;100.00;101112.25;5033315;28;20218;-55
2021/12/21 00:44:33;;;;;;;16.83;11.70;;;;;;;-2.35;100.00;101111.19;5032169;28;20199;-54
2021/12/21 00:46:58;;;;;;;18.97;12.03;;;;;;;-2.35;100.00;101111.19;5035335;28;20216;-54
2021/12/21 00:49:24;;;;;;;19.67;11.83;;;;;;;-2.36;100.00;101112.84;5026850;28;20196;-54
2021/12/21 00:51:50;;;;;;;18.20;12.27;;;;;;;-2.36;100.00;101106.91;5024564;28;20249;-55
2021/12/21 00:54:16;;;;;;;18.00;11.23;;;;;;;-2.37;100.00;101095.03;5023774;28;20648;-54
2021/12/21 00:56:42;;;;;;;18.77;11.27;;;;;;;-2.43;100.00;101093.03;5030117;28;20570;-55
2021/12/21 00:59:08;;;;;;;18.67;12.30;;;;;;;-2.41;100.00;101100.69;5025041;28;20195;-54
2021/12/21 01:01:36;;;;;;;18.47;12.40;;;;;;;-2.45;100.00;101095.44;5026683;28;20192;-55
2021/12/21 01:04:07;;;;;;;15.40;10.90;;;;;;;-2.47;100.00;101096.16;5020727;28;20215;-55
2021/12/21 01:09:09;;;;;;;16.20;10.83;;;;;;;-2.53;100.00;101088.19;5023681;28;20667;-55
2021/12/21 01:11:43;;;;;;;18.97;10.57;;;;;;;-2.53;100.00;101084.00;5023818;28;20179;-55
2021/12/21 01:24:44;;;;;;;;;;;;;;;;;;;;;
2021/12/21 01:27:18;;;;;;;15.83;11.50;;;;;;;-2.71;100.00;101086.34;5029582;28;20215;-55
2021/12/21 01:32:33;;;;;;;15.27;12.40;;;;;;;-2.76;100.00;101095.34;5026736;28;20200;-54
2021/12/21 01:35:06;;;;;;;20.37;12.03;;;;;;;-2.78;100.00;101095.25;5027719;28;20201;-54
2021/12/21 01:40:38;;;;;;;18.67;12.03;;;;;;;-2.87;100.00;101098.94;4997110;28;20229;-54
2021/12/21 01:43:19;;;;;;;17.70;12.00;;;;;;;-2.92;100.00;101098.63;5029561;28;20188;-54
2021/12/21 01:51:14;;;;;;;19.10;13.17;;;;;;;-2.97;100.00;101102.59;5026282;28;20278;-54
2021/12/21 01:53:41;;;;;;;17.53;12.80;;;;;;;-3.00;100.00;101099.84;5028159;28;20274;-56
2021/12/21 01:56:07;;;;;;;18.50;12.93;;;;;;;-3.01;100.00;101095.56;5026860;28;20183;-53
2021/12/21 01:58:36;;;;;;;21.40;13.10;;;;;;;-2.98;100.00;101090.69;5028316;28;20638;-56
2021/12/21 02:01:05;;;;;;;18.57;13.20;;;;;;;-2.92;100.00;101093.56;5026037;28;20176;-56
2021/12/21 02:03:30;;;;;;;19.87;13.43;;;;;;;-2.93;100.00;101091.81;5028821;28;20196;-53
2021/12/21 02:05:56;;;;;;;18.73;12.83;;;;;;;-2.93;100.00;101094.34;5026930;28;20257;-54
2021/12/21 02:08:21;;;;;;;17.73;13.37;;;;;;;-2.94;100.00;101088.44;5024882;28;20234;-54
2021/12/21 02:10:47;;;;;;;19.73;13.33;;;;;;;-2.94;100.00;101088.44;5027337;28;20198;-53
2021/12/21 02:13:12;;;;;;;20.43;12.93;;;;;;;-2.89;100.00;101088.69;5028310;28;20184;-54
2021/12/21 02:15:38;;;;;;;18.43;13.30;;;;;;;-2.86;100.00;101088.88;5023664;28;20199;-55
2021/12/21 02:20:43;;;;;;;19.63;14.13;;;;;;;-2.94;100.00;101075.75;5029253;28;20183;-54
2021/12/21 02:23:21;;;;;;;17.40;12.70;;;;;;;-2.93;100.00;101074.97;5020662;28;20576;-55
2021/12/21 02:26:17;;;;;;;20.53;13.37;;;;;;;-2.93;100.00;101084.22;5020413;28;20568;-54
2021/12/21 02:31:08;;;;;;;23.43;14.90;;;;;;;-2.89;100.00;101077.69;5022797;28;20195;-54
2021/12/21 02:33:35;;;;;;;17.20;13.00;;;;;;;-2.96;100.00;101077.34;5025806;28;20620;-54
2021/12/21 02:36:00;;;;;;;21.70;13.30;;;;;;;-2.98;100.00;101076.38;5027925;28;20195;-55
2021/12/21 02:38:26;;;;;;;19.37;13.30;;;;;;;-3.01;100.00;101080.38;5026499;28;20282;-55
2021/12/21 02:40:52;;;;;;;20.00;13.53;;;;;;;-3.02;100.00;101076.97;5027806;28;20187;-54
2021/12/21 02:43:18;;;;;;;22.70;13.27;;;;;;;-3.03;100.00;101079.41;5025295;28;20219;-54
2021/12/21 02:45:43;;;;;;;21.77;13.73;;;;;;;-3.04;100.00;101076.03;5027604;28;20199;-57
2021/12/21 02:48:09;;;;;;;19.03;13.03;;;;;;;-3.02;100.00;101082.03;5043884;28;20225;-54
2021/12/21 02:50:38;;;;;;;19.03;14.10;;;;;;;-3.01;100.00;101073.63;5039146;28;20187;-54
2021/12/21 02:53:04;;;;;;;22.77;13.87;;;;;;;-3.06;100.00;101075.06;5025301;28;20187;-54
2021/12/21 02:55:29;;;;;;;20.63;14.10;;;;;;;-3.02;100.00;101068.50;5026249;28;20190;-56
2021/12/21 02:57:57;;;;;;;20.47;14.33;;;;;;;-3.02;100.00;101071.88;5026573;28;20211;-54
2021/12/21 03:00:23;;;;;;;20.20;14.73;;;;;;;-3.02;100.00;101065.97;5024634;28;20191;-57
2021/12/21 03:02:48;;;;;;;22.33;13.93;;;;;;;-3.00;100.00;101074.53;5030013;28;20183;-54
2021/12/21 03:05:14;;;;;;;18.37;13.53;;;;;;;-2.99;100.00;101068.69;5024865;28;20705;-56
2021/12/21 03:10:25;;;;;;;24.47;14.53;;;;;;;-3.06;100.00;101064.91;5023866;28;20192;-56
2021/12/21 03:15:28;;;;;;;19.87;14.80;;;;;;;-3.03;100.00;101056.63;5019618;28;20794;-53
2021/12/21 03:17:55;;;;;;;20.83;14.23;;;;;;;-2.99;100.00;101059.41;5023425;28;20294;-53
2021/12/21 03:20:21;;;;;;;20.10;14.07;;;;;;;-2.99;100.00;101077.16;5024379;28;20191;-55
2021/12/21 03:22:47;;;;;;;24.70;15.37;;;;;;;-2.99;100.00;101044.22;5024311;28;20187;-55
2021/12/21 03:25:13;;;;;;;22.47;14.27;;;;;;;-3.00;100.00;101056.81;5024349;28;20201;-53
2021/12/21 03:27:38;;;;;;;26.10;14.93;;;;;;;-3.06;100.00;101062.38;5026865;28;20230;-53
2021/12/21 03:30:08;;;;;;;22.90;15.03;;;;;;;-3.09;100.00;101057.13;5024612;28;20187;-55
2021/12/21 03:32:33;;;;;;;21.87;15.07;;;;;;;-3.11;100.00;101071.38;5026841;28;20279;-54
2021/12/21 03:34:59;;;;;;;18.87;14.20;;;;;;;-3.13;100.00;101057.72;5022546;28;20188;-56
2021/12/21 03:37:24;;;;;;;18.57;14.20;;;;;;;-3.15;100.00;101064.34;5017174;28;20523;-55
2021/12/21 03:39:52;;;;;;;19.00;13.83;;;;;;;-3.23;100.00;101064.78;5025469;28;20195;-55
2021/12/21 03:42:18;;;;;;;21.80;14.93;;;;;;;-3.27;100.00;101067.91;5024314;28;20194;-54
2021/12/21 03:44:43;;;;;;;22.87;14.30;;;;;;;-3.29;100.00;101064.41;5024790;28;20216;-54
2021/12/21 03:47:11;;;;;;;20.07;13.40;;;;;;;-3.29;100.00;101055.97;5024155;28;20854;-56
2021/12/21 03:52:16;;;;;;;19.13;14.03;;;;;;;-3.25;100.00;101053.69;5026376;28;20191;-55
2021/12/21 03:54:45;;;;;;;20.20;14.67;;;;;;;-3.22;100.00;101046.28;5022888;28;20202;-53
2021/12/21 03:57:11;;;;;;;26.97;15.53;;;;;;;-3.19;100.00;101044.72;5026161;28;20203;-54
2021/12/21 03:59:37;;;;;;;22.33;14.93;;;;;;;-3.18;100.00;101039.75;5024432;28;20183;-54
2021/12/21 04:02:04;;;;;;;23.80;14.77;;;;;;;-3.21;100.00;101049.69;5024381;28;20190;-53
2021/12/21 04:04:29;;;;;;;21.33;14.70;;;;;;;-3.23;100.00;101041.13;5023202;28;20194;-54
2021/12/21 04:06:55;;;;;;;20.47;14.33;;;;;;;-3.25;100.00;101045.22;5025905;28;20223;-54
2021/12/21 04:09:20;;;;;;;22.27;14.83;;;;;;;-3.24;100.00;101052.03;5022610;28;20610;-56
2021/12/21 04:11:46;;;;;;;19.77;14.17;;;;;;;-3.22;100.00;101035.28;5024613;28;20601;-55
2021/12/21 04:14:12;;;;;;;20.73;14.70;;;;;;;-3.27;100.00;101039.22;5021705;28;20195;-54
2021/12/21 04:16:37;;;;;;;22.77;15.63;;;;;;;-3.29;100.00;101038.25;5023891;28;20662;-55
2021/12/21 04:19:04;;;;;;;20.03;14.67;;;;;;;-3.28;100.00;101034.94;5024503;28;20192;-54
2021/12/21 04:21:29;;;;;;;21.07;14.73;;;;;;;-3.28;100.00;101029.88;5021395;28;20187;-56
2021/12/21 04:23:55;;;;;;;19.67;14.90;;;;;;;-3.26;100.00;101029.16;5023795;28;20198;-54
2021/12/21 04:26:20;;;;;;;21.43;14.50;;;;;;;-3.22;100.00;101035.28;5022858;28;20211;-56
2021/12/21 04:28:46;;;;;;;20.37;14.80;;;;;;;-3.21;100.00;101029.44;5021977;28;20270;-57
2021/12/21 04:31:12;;;;;;;18.47;14.80;;;;;;;-3.29;100.00;101023.91;5026309;28;20187;-54
2021/12/21 04:33:42;;;;;;;20.60;15.10;;;;;;;-3.30;100.00;101026.38;5023263;28;20183;-56
2021/12/21 04:36:08;;;;;;;30.47;15.53;;;;;;;-3.26;100.00;101028.31;5023832;28;20187;-56
2021/12/21 04:38:37;;;;;;;22.77;14.90;;;;;;;-3.22;100.00;101032.75;5021584;28;20606;-55
2021/12/21 04:41:16;;;;;;;19.40;14.70;;;;;;;-3.20;100.00;101023.59;5024195;28;20577;-53
2021/12/21 04:43:42;;;;;;;21.83;14.97;;;;;;;-3.19;100.00;101016.88;5024000;28;20574;-55
2021/12/21 04:46:08;;;;;;;26.03;16.37;;;;;;;-3.23;100.00;101029.34;5022561;28;20249;-53
2021/12/21 04:48:33;;;;;;;22.30;16.70;;;;;;;-3.23;100.00;101026.81;5022092;28;21691;-55
2021/12/21 04:50:59;;;;;;;19.27;14.03;;;;;;;-3.18;100.00;101027.09;5019094;28;20203;-53
2021/12/21 04:53:25;;;;;;;24.47;13.53;;;;;;;-3.18;100.00;101024.56;5025619;28;20941;-55
2021/12/21 04:55:51;;;;;;;17.80;13.10;;;;;;;-3.19;100.00;101016.88;5024766;28;20553;-55
2021/12/21 04:58:16;;;;;;;16.77;13.73;;;;;;;-3.22;100.00;101015.91;5024255;28;20230;-54
2021/12/21 05:00:43;;;;;;;20.13;13.83;;;;;;;-3.23;100.00;101015.81;5027722;28;20648;-53
2021/12/21 05:03:08;;;;;;;18.30;12.90;;;;;;;-3.22;100.00;101015.91;5024991;28;20203;-53
2021/12/21 05:05:33;;;;;;;17.47;13.00;;;;;;;-3.23;100.00;101019.22;5026068;28;20184;-54
2021/12/21 05:08:08;;;;;;;18.90;13.27;;;;;;;-3.24;100.00;101022.53;5026631;28;20211;-56
2021/12/21 05:10:45;;;;;;;19.17;13.33;;;;;;;-3.25;100.00;101015.72;5025951;28;20622;-56
2021/12/21 05:13:12;;;;;;;16.30;12.40;;;;;;;-3.27;100.00;101012.22;5027141;28;20188;-54
2021/12/21 05:15:38;;;;;;;17.67;12.67;;;;;;;-3.27;100.00;101017.28;5025049;28;20250;-54
2021/12/21 05:18:03;;;;;;;15.73;11.93;;;;;;;-3.31;100.00;101017.88;5023098;28;20219;-55
2021/12/21 05:20:28;;;;;;;18.67;12.83;;;;;;;-3.34;100.00;101012.66;5035561;28;20192;-53
2021/12/21 05:22:54;;;;;;;17.77;12.20;;;;;;;-3.32;100.00;101007.69;5025607;28;20614;-55
2021/12/21 05:25:20;;;;;;;17.93;12.27;;;;;;;-3.32;100.00;101000.09;5023785;28;20195;-55
2021/12/21 05:27:45;;;;;;;16.27;11.73;;;;;;;-3.35;100.00;101000.78;5024445;28;20239;-56
2021/12/21 05:30:12;;;;;;;19.40;12.80;;;;;;;-3.38;100.00;100998.06;5022930;28;20187;-57
2021/12/21 05:32:38;;;;;;;17.90;12.47;;;;;;;-3.37;100.00;101004.88;5023071;28;20202;-55
2021/12/21 05:35:04;;;;;;;15.07;11.60;;;;;;;-3.38;100.00;100991.34;5024067;28;20184;-54
2021/12/21 05:37:29;;;;;;;17.97;12.20;;;;;;;-3.40;100.00;100997.09;5026409;28;20690;-56
2021/12/21 05:40:09;;;;;;;18.20;12.27;;;;;;;-3.44;100.00;101000.22;5027060;28;20183;-54
2021/12/21 05:42:35;;;;;;;17.10;12.13;;;;;;;-3.46;100.00;100999.25;5026161;28;20689;-56
2021/12/21 05:45:01;;;;;;;15.27;11.17;;;;;;;-3.43;100.00;100994.38;5029652;28;20215;-53
2021/12/21 05:47:27;;;;;;;18.40;12.40;;;;;;;-3.44;100.00;101000.22;5024439;28;20585;-54
2021/12/21 05:49:52;;;;;;;13.60;11.73;;;;;;;-3.44;100.00;101002.75;5025966;28;20179;-54
2021/12/21 05:52:17;;;;;;;17.00;12.13;;;;;;;-3.44;100.00;100997.69;5026570;28;20338;-54
2021/12/21 05:54:43;;;;;;;18.00;12.83;;;;;;;-3.43;100.00;100995.28;5028602;28;20504;-54
2021/12/21 05:57:08;;;;;;;15.37;11.87;;;;;;;-3.41;100.00;101003.84;5025538;28;20337;-54
2021/12/21 05:59:34;;;;;;;18.27;11.93;;;;;;;-3.41;100.00;101008.00;5022304;28;20179;-54
2021/12/21 06:01:59;;;;;;;15.07;11.93;;;;;;;-3.43;100.00;101005.41;5027234;28;20184;-56
2021/12/21 06:04:25;;;;;;;18.53;11.83;;;;;;;-3.40;100.00;101019.88;5029255;28;20679;-55
2021/12/21 06:06:51;;;;;;;19.73;12.57;;;;;;;-3.41;100.00;101013.97;5026046;28;20207;-56
2021/12/21 06:09:17;;;;;;;21.10;12.33;;;;;;;-3.40;100.00;101009.75;5024097;28;20274;-54
2021/12/21 06:11:54;;;;;;;18.87;12.27;;;;;;;-3.37;100.00;101027.66;5030283;28;20269;-56
2021/12/21 06:14:49;;;;;;;16.10;12.00;;;;;;;-3.41;100.00;101016.50;5026470;28;20207;-56
2021/12/21 06:25:42;;;;;;;17.70;12.53;;;;;;;-3.28;100.00;101025.66;4959309;28;20559;-54
2021/12/21 06:28:11;;;;;;;20.20;13.43;;;;;;;-3.25;100.00;101020.78;5029464;28;20227;-55
2021/12/21 06:30:38;;;;;;;15.70;11.93;;;;;;;-3.28;100.00;101030.72;5028107;28;20187;-56
2021/12/21 06:33:05;;;;;;;18.93;12.10;;;;;;;-3.26;100.00;101028.31;5029051;28;20712;-54
2021/12/21 06:35:30;;;;;;;16.30;12.17;;;;;;;-3.29;100.00;101028.13;5029016;28;20215;-56
2021/12/21 06:37:57;;;;;;;17.07;11.60;;;;;;;-3.30;100.00;101039.03;5030033;28;20227;-54
2021/12/21 06:40:23;;;;;;;20.00;12.10;;;;;;;-3.34;100.00;101037.09;5027508;28;20547;-55
2021/12/21 06:42:50;;;;;;;21.13;13.27;;;;;;;-3.33;100.00;101039.72;5024318;28;20593;-54
2021/12/21 06:45:26;;;;;;;16.57;11.77;;;;;;;-3.29;100.00;101034.03;5025895;28;20554;-55
2021/12/21 06:53:20;;;;;;;15.53;12.27;;;;;;;-3.40;100.00;101040.13;5020200;28;20651;-56
2021/12/21 06:55:46;;;;;;;18.10;12.50;;;;;;;-3.38;100.00;101041.97;5026171;28;20191;-56
2021/12/21 06:58:11;;;;;;;20.47;13.13;;;;;;;-3.37;100.00;101046.25;5029636;28;20480;-56
2021/12/21 07:00:37;;;;;;;17.73;12.60;;;;;;;-3.30;100.00;101049.16;5029765;28;20266;-55
2021/12/21 07:03:03;;;;;;;17.23;11.70;;;;;;;-3.31;100.00;101038.13;5016332;28;20230;-56
2021/12/21 07:05:29;;;;;;;18.20;12.97;;;;;;;-3.32;100.00;101055.78;5009162;28;20220;-56
2021/12/21 07:07:55;;;;;;;16.20;12.20;;;;;;;-3.29;100.00;101053.44;5023782;28;20222;-54
2021/12/21 07:10:25;;;;;;;14.90;13.13;;;;;;;-3.29;100.00;101059.34;5041825;28;20196;-55
2021/12/21 07:18:13;;;;;;;17.57;12.70;;;;;;;-3.35;100.00;101056.47;5017516;28;20218;-54
2021/12/21 07:20:39;;;;;;;15.03;12.57;;;;;;;-3.39;100.00;101055.41;5024873;28;20187;-55
2021/12/21 07:23:05;;;;;;;24.60;13.37;;;;;;;-3.41;100.00;101056.09;5018458;28;20266;-53
2021/12/21 07:25:31;;;;;;;21.20;13.77;;;;;;;-3.32;100.00;101053.25;5019517;28;20187;-56
2021/12/21 07:27:57;;;;;;;19.47;12.90;;;;;;;-3.29;100.00;101054.28;5015399;28;20719;-56
2021/12/21 07:30:23;;;;;;;20.30;13.97;;;;;;;-3.30;100.00;101052.53;5023318;28;20737;-54
2021/12/21 07:32:49;;;;;;;19.50;14.40;;;;;;;-3.31;100.00;101050.78;5018378;28;20199;-55
2021/12/21 07:35:14;;;;;;;20.13;13.83;;;;;;;-3.36;100.00;101054.72;5019320;28;20192;-56
2021/12/21 07:37:40;;;;;;;20.53;13.17;;;;;;;-3.37;100.00;101058.91;5025152;28;20253;-54
2021/12/21 07:40:07;;;;;;;20.57;13.80;;;;;;;-3.37;100.00;101053.84;5022891;28;20218;-56
2021/12/21 07:42:33;;;;;;;20.33;14.00;;;;;;;-3.34;100.00;101060.75;5021987;28;20651;-55
2021/12/21 07:44:58;;;;;;;20.67;13.87;;;;;;;-3.31;100.00;101055.00;5020862;28;20199;-56
2021/12/21 07:47:24;;;;;;;19.53;14.27;;;;;;;-3.33;100.00;101062.50;5027033;28;20695;-54
2021/12/21 07:49:50;;;;;;;19.90;13.47;;;;;;;-3.29;100.00;101069.47;5028338;28;20647;-56
2021/12/21 07:52:16;;;;;;;17.03;12.83;;;;;;;-3.22;100.00;101060.59;5028844;28;20682;-54
2021/12/21 07:54:41;;;;;;;17.80;13.70;;;;;;;-3.15;100.00;101060.19;5029305;28;20625;-56
2021/12/21 07:57:07;;;;;;;20.77;13.40;;;;;;;-3.11;100.00;101068.84;5028238;28;20202;-54
2021/12/21 07:59:34;;;;;;;26.33;12.90;;;;;;;-3.04;100.00;101060.81;5027594;28;20266;-56
2021/12/21 08:01:59;;;;;;;18.43;12.97;;;;;;;-3.01;100.00;101058.44;5027069;28;20604;-54
2021/12/21 08:04:28;;;;;;;14.63;12.20;;;;;;;-2.99;100.00;101051.81;5027955;28;20182;-55
2021/12/21 08:06:55;;;;;;;20.10;13.37;;;;;;;-2.95;100.00;101056.28;5027465;28;20269;-56
2021/12/21 08:09:21;;;;;;;18.40;13.07;;;;;;;-2.95;100.00;101051.22;5028420;28;20210;-56
2021/12/21 08:14:32;;;;;;;17.37;12.93;;;;;;;-2.85;100.00;101057.69;5028201;28;20253;-55
2021/12/21 08:16:57;;;;;;;19.47;13.53;;;;;;;-2.84;100.00;101051.84;5027991;28;20573;-55
2021/12/21 08:19:23;;;;;;;18.87;13.23;;;;;;;-2.81;100.00;101056.22;5028108;28;20602;-54
2021/12/21 08:21:48;;;;;;;18.20;13.37;;;;;;;-2.77;100.00;101051.41;5028465;28;20191;-54
2021/12/21 08:24:13;;;;;;;15.37;12.50;;;;;;;-2.73;100.00;101049.03;4984181;28;20269;-54
2021/12/21 08:26:39;;;;;;;14.50;11.43;;;;;;;-2.68;100.00;101055.25;5030162;28;20702;-54
2021/12/21 08:29:04;;;;;;;18.10;12.10;;;;;;;-2.63;100.00;101056.38;4992958;28;20196;-54
2021/12/21 08:31:30;;;;;;;16.40;12.60;;;;;;;-2.57;100.00;101053.34;4993096;28;20185;-56
2021/12/21 08:33:55;;;;;;;17.00;11.63;;;;;;;-2.52;100.00;101057.88;4984385;28;20300;-55
2021/12/21 08:36:20;;;;;;;17.13;11.40;;;;;;;-2.49;100.00;101049.56;4987600;28;20650;-53
2021/12/21 08:38:46;;;;;;;16.63;12.07;;;;;;;-2.47;100.00;101048.00;4997235;28;20217;-54
2021/12/21 08:41:11;;;;;;;14.30;11.10;;;;;;;-2.43;100.00;101059.19;4997196;28;20243;-55
2021/12/21 08:43:37;;;;;;;19.00;11.70;;;;;;;-2.39;100.00;101048.44;4995702;28;20643;-56
2021/12/21 08:46:06;;;;;;;14.40;11.20;;;;;;;-2.34;100.00;101047.00;4993117;28;20204;-56
2021/12/21 08:48:32;;;;;;;13.03;10.93;;;;;;;-2.29;100.00;101053.22;4987702;28;20638;-54
2021/12/21 08:50:57;;;;;;;16.73;11.60;;;;;;;-2.22;100.00;101049.34;4989054;28;20204;-57
2021/12/21 08:53:24;;;;;;;13.87;11.53;;;;;;;-2.17;100.00;101056.41;4998817;28;20219;-54
2021/12/21 08:55:51;;;;;;;16.47;11.77;;;;;;;-2.12;100.00;101058.34;4992885;28;20185;-56
2021/12/21 08:58:18;;;;;;;16.30;11.20;;;;;;;-2.04;100.00;101057.13;4998274;28;20569;-54
2021/12/21 09:00:43;;;;;;;15.30;11.90;;;;;;;-1.98;100.00;101059.13;4992570;28;20190;-54
2021/12/21 09:03:10;;;;;;;18.47;11.73;;;;;;;-1.90;100.00;101068.88;5015809;28;20560;-54
2021/12/21 09:05:36;;;;;;;13.37;11.10;;;;;;;-1.86;100.00;101067.38;4995793;28;20267;-56
2021/12/21 09:08:03;;;;;;;17.83;11.80;;;;;;;-1.80;100.00;101066.84;4989791;28;20670;-54
2021/12/21 09:10:29;;;;;;;14.27;11.13;;;;;;;-1.76;100.00;101063.69;4990648;28;20197;-56
2021/12/21 09:12:55;;;;;;;12.93;10.40;;;;;;;-1.75;100.00;101065.44;4989200;28;20311;-57
2021/12/21 09:15:22;;;;;;;18.30;12.13;;;;;;;-1.70;100.00;101059.81;4988960;28;20657;-56
2021/12/21 09:17:47;;;;;;;16.67;11.40;;;;;;;-1.66;100.00;101059.97;4988039;28;20260;-54
2021/12/21 09:20:16;;;;;;;16.63;10.80;;;;;;;-1.63;100.00;101055.94;4987819;28;20614;-55
2021/12/21 09:22:42;;;;;;;17.07;11.37;;;;;;;-1.58;100.00;101056.16;4991584;28;20220;-55
2021/12/21 09:25:09;;;;;;;13.97;11.30;;;;;;;-1.51;100.00;101054.81;4988155;28;20193;-54
2021/12/21 09:27:35;;;;;;;13.93;10.93;;;;;;;-1.49;100.00;101068.47;4990168;28;20211;-55
2021/12/21 09:30:00;;;;;;;15.87;10.73;;;;;;;-1.47;100.00;101056.72;4986015;28;20244;-55
2021/12/21 09:32:26;;;;;;;14.87;10.60;;;;;;;-1.44;100.00;101060.28;4982571;28;20193;-54
2021/12/21 09:34:52;;;;;;;16.03;10.63;;;;;;;-1.40;100.00;101061.31;4986070;28;20185;-55
2021/12/21 09:37:20;;;;;;;13.93;11.07;;;;;;;-1.33;100.00;101053.25;4989830;28;20570;-55
2021/12/21 09:39:51;;;;;;;15.47;11.50;;;;;;;-1.29;100.00;101049.19;4988972;28;20197;-55
2021/12/21 09:42:19;;;;;;;17.60;11.17;;;;;;;-1.25;100.00;101064.66;4989302;28;20544;-55
2021/12/21 09:44:46;;;;;;;16.27;11.47;;;;;;;-1.21;100.00;101047.91;4984479;28;20181;-55
2021/12/21 09:47:13;;;;;;;13.83;11.27;;;;;;;-1.14;100.00;101055.06;4987634;28;20490;-55
2021/12/21 09:49:39;;;;;;;13.87;11.10;;;;;;;-1.07;100.00;101048.63;5022418;28;20239;-54
2021/12/21 09:52:07;;;;;;;15.83;11.70;;;;;;;-1.05;100.00;101054.66;4982957;28;20595;-55
2021/12/21 09:54:37;;;;;;;14.33;11.07;;;;;;;-1.01;100.00;101043.84;4973081;28;20612;-55
2021/12/21 09:57:03;;;;;;;14.63;10.43;;;;;;;-0.97;100.00;101055.91;4993938;28;20205;-54
2021/12/21 09:59:29;;;;;;;14.17;11.50;;;;;;;-0.91;100.00;101050.28;4978357;28;20251;-53
2021/12/21 10:01:56;;;;;;;15.57;11.70;;;;;;;-0.86;100.00;101050.50;4988794;28;20190;-57
2021/12/21 10:04:22;;;;;;;18.50;11.00;;;;;;;-0.83;100.00;101045.56;4987480;28;20912;-56
2021/12/21 10:06:50;;;;;;;13.70;11.03;;;;;;;-0.80;100.00;101048.25;4989013;28;20304;-54
2021/12/21 10:09:18;;;;;;;15.40;10.80;;;;;;;-0.75;100.00;101061.19;4990123;28;20192;-55
2021/12/21 10:11:50;;;;;;;12.20;10.00;;;;;;;-0.71;100.00;101042.75;4989234;28;20280;-56
2021/12/21 10:14:17;;;;;;;13.10;10.47;;;;;;;-0.62;100.00;101055.94;5018455;28;20217;-56
2021/12/21 10:16:45;;;;;;;16.37;10.80;;;;;;;-0.57;100.00;101046.84;4986914;28;20212;-54
2021/12/21 10:19:24;;;;;;;12.90;10.23;;;;;;;-0.51;100.00;101043.72;4989544;28;20222;-55
2021/12/21 10:21:50;;;;;;;13.60;9.90;;;;;;;-0.45;100.00;101050.78;4981472;28;20236;-54
2021/12/21 10:24:27;;;;;;;14.13;9.33;;;;;;;-0.43;100.00;101054.25;4989010;28;20220;-54
2021/12/21 10:27:05;;;;;;;13.10;9.83;;;;;;;-0.38;100.00;101038.41;5001863;28;20560;-56
2021/12/21 10:29:45;;;;;;;12.27;9.23;;;;;;;-0.32;100.00;101035.31;4988097;28;20189;-56
2021/12/21 10:32:24;;;;;;;11.03;9.40;;;;;;;-0.27;100.00;101027.91;4981787;28;20194;-55
2021/12/21 10:34:53;;;;;;;11.83;9.57;;;;;;;-0.22;100.00;101024.75;4981925;28;20216;-54
2021/12/21 10:37:25;;;;;;;12.47;9.13;;;;;;;-0.18;100.00;101026.66;4989864;28;20213;-54
2021/12/21 10:40:13;;;;;;;12.27;9.60;;;;;;;-0.11;100.00;101027.81;4984498;28;20753;-55
2021/12/21 10:43:09;;;;;;;11.90;8.97;;;;;;;-0.04;100.00;101032.38;4987982;28;20283;-55
2021/12/21 10:45:42;;;;;;;12.80;9.37;;;;;;;0.04;100.00;101024.22;4992626;28;20484;-57
2021/12/21 10:48:16;;;;;;;11.03;8.53;;;;;;;0.04;100.00;101025.09;4987413;28;20655;-54
2021/12/21 10:50:42;;;;;;;13.10;9.07;;;;;;;0.10;100.00;101012.66;4982137;28;20267;-54
2021/12/21 10:53:17;;;;;;;12.37;9.07;;;;;;;0.15;100.00;101025.59;4979679;28;20652;-56
2021/12/21 10:55:43;;;;;;;14.33;8.63;;;;;;;0.19;100.00;101019.84;4980548;28;20184;-56
2021/12/21 10:58:13;;;;;;;11.27;9.13;;;;;;;0.21;100.00;101022.44;4980505;28;20360;-53
2021/12/21 11:00:53;;;;;;;12.60;8.73;;;;;;;0.22;100.00;101014.88;4971396;28;20227;-54
2021/12/21 11:03:29;;;;;;;10.83;8.90;;;;;;;0.27;100.00;101018.50;4981528;28;20635;-53
2021/12/21 11:05:55;;;;;;;11.23;8.57;;;;;;;0.33;100.00;101004.31;4985350;28;20638;-55
2021/12/21 11:08:25;;;;;;;11.63;9.73;;;;;;;0.35;100.00;101007.78;4990606;28;20206;-56
2021/12/21 11:10:54;;;;;;;11.97;8.50;;;;;;;0.40;100.00;101004.63;4993524;28;20181;-54
2021/12/21 11:13:20;;;;;;;13.20;9.10;;;;;;;0.45;100.00;101000.59;4984575;28;20675;-54
2021/12/21 11:15:55;;;;;;;14.03;8.67;;;;;;;0.52;100.00;100996.69;4971035;28;20204;-54
2021/12/21 11:18:23;;;;;;;14.57;8.53;;;;;;;0.57;100.00;100994.31;4991370;28;20238;-54
2021/12/21 11:20:55;;;;;;;10.80;8.20;;;;;;;0.58;100.00;100991.84;5000619;28;20193;-56
2021/12/21 11:23:23;;;;;;;10.20;7.77;;;;;;;0.63;100.00;100988.63;5013709;28;20189;-54
2021/12/21 11:25:53;;;;;;;11.67;7.67;;;;;;;0.66;100.00;100984.50;5034943;28;20204;-56
2021/12/21 11:28:25;;;;;;;10.90;7.23;;;;;;;0.68;100.00;100995.66;4977986;28;20216;-55
2021/12/21 11:30:52;;;;;;;14.10;8.07;;;;;;;0.75;100.00;100986.59;5009759;28;20317;-55
2021/12/21 11:33:22;;;;;;;11.53;7.77;;;;;;;0.76;100.00;100993.44;4978813;28;20179;-54
2021/12/21 11:38:33;;;;;;;9.30;6.87;;;;;;;0.81;100.00;100980.88;4979015;28;20749;-56
2021/12/21 11:40:59;;;;;;;7.70;6.90;;;;;;;0.86;100.00;100984.50;4982276;28;20243;-55
2021/12/21 11:43:30;;;;;;;8.87;7.13;;;;;;;0.88;100.00;100977.78;4980939;28;20185;-54
2021/12/21 11:46:02;;;;;;;8.83;7.07;;;;;;;0.91;100.00;100978.78;4980060;28;20190;-54
2021/12/21 11:49:06;;;;;;;10.17;6.37;;;;;;;1.00;100.00;100969.75;4981143;28;20275;-57
2021/12/21 11:51:32;;;;;;;7.33;6.00;;;;;;;1.03;100.00;100975.88;4979201;28;20206;-57
2021/12/21 11:53:57;;;;;;;8.83;6.47;;;;;;;1.09;100.00;100971.81;4978188;28;20193;-54
2021/12/21 11:56:26;;;;;;;9.60;6.47;;;;;;;1.11;100.00;100973.63;4980371;28;20177;-54
2021/12/21 11:58:54;;;;;;;10.40;6.37;;;;;;;1.14;100.00;100965.22;4977757;28;20181;-55
2021/12/21 12:01:23;;;;;;;7.23;5.80;;;;;;;1.19;100.00;100974.81;4979821;28;20185;-54
2021/12/21 12:04:03;;;;;;;11.57;6.17;;;;;;;1.24;99.27;100962.22;4977802;28;20198;-54
2021/12/21 12:06:43;;;;;;;7.60;5.97;;;;;;;1.28;98.42;100964.09;4982914;28;20635;-57
2021/12/21 12:09:09;;;;;;;8.53;6.00;;;;;;;1.34;98.88;100976.22;4983555;28;20297;-54
2021/12/21 12:11:38;;;;;;;9.93;6.43;;;;;;;1.41;99.64;100979.88;4978462;28;20267;-54
2021/12/21 12:14:06;;;;;;;8.20;5.73;;;;;;;1.44;98.86;100974.91;4979954;28;20193;-54
2021/12/21 12:16:53;;;;;;;8.50;5.80;;;;;;;1.49;99.06;100975.97;4983741;28;20193;-54